CCG2 weather

Lac Gobeil Seaplane Base
Quebec, Canada

Public forecast

Using degrees Celsius for public forecast. Weather courtesy of forecast.io.

Closest aviation weather report (METAR) to Lac Gobeil Seaplane Base

Closest report is CFB Bagotville, 54.2 nm (100.3 km) W. Retrieved 2019/12/15 12:26 UTC (22 minutes ago):

CYBG 151226Z 28019G24KT 1 1/2SM -SN OVC015 00/M01 A2880 RMK SN6SC2 VIS VRB 1-2 PRESRR CIG VRB 11-19 SLP760

Closest aviation forecast (TAF) to Lac Gobeil Seaplane Base

Forecast is more than 12 hours old.

Closest forecast is Charlevoix Airport, 45.1 nm (83.5 km) SSW. Retrieved 2018/06/10 18:00 UTC (2 years ago):

TAF CYML 101730Z 1018/1106 12005KT P6SM FEW060 FM102100 14006KT P6SM SCT080 BECMG 1021/1023 VRB03KT RMK NXT FCST BY 110000Z